createdAt,value
2017-08-28T00:00:36.603Z,16.57
2017-08-28T00:01:37.326Z,16.51
2017-08-28T00:02:38.048Z,16.49
2017-08-28T00:03:38.767Z,16.50
2017-08-28T00:04:39.486Z,16.49
2017-08-28T00:05:40.205Z,16.54
2017-08-28T00:06:40.926Z,16.51
2017-08-28T00:07:41.649Z,16.51
2017-08-28T00:08:42.364Z,16.56
2017-08-28T00:09:43.089Z,16.50
2017-08-28T00:10:43.825Z,16.47
2017-08-28T00:11:44.544Z,16.53
2017-08-28T00:12:45.265Z,16.54
2017-08-28T00:13:45.988Z,16.56
2017-08-28T00:14:46.705Z,16.50
2017-08-28T00:15:47.428Z,16.46
2017-08-28T00:16:48.143Z,16.53
2017-08-28T00:17:48.891Z,16.56
2017-08-28T00:18:49.609Z,16.51
2017-08-28T00:19:50.329Z,16.53
2017-08-28T00:20:51.054Z,16.47
2017-08-28T00:21:51.771Z,16.53
2017-08-28T00:22:52.515Z,16.51
2017-08-28T00:23:53.231Z,16.50
2017-08-28T00:24:53.955Z,16.53
2017-08-28T00:25:54.671Z,16.53
2017-08-28T00:26:55.413Z,16.53
2017-08-28T00:27:56.159Z,16.49
2017-08-28T00:28:56.876Z,16.50
2017-08-28T00:29:57.617Z,16.54
2017-08-28T00:30:58.356Z,16.51
2017-08-28T00:31:59.077Z,16.49
2017-08-28T00:32:59.794Z,16.36
2017-08-28T00:34:00.535Z,16.42
2017-08-28T00:35:01.279Z,16.41
2017-08-28T00:36:01.996Z,16.43
2017-08-28T00:37:02.716Z,16.38
2017-08-28T00:38:03.437Z,16.39
2017-08-28T00:39:04.159Z,16.32
2017-08-28T00:40:04.899Z,16.29
2017-08-28T00:41:05.624Z,16.32
2017-08-28T00:42:06.343Z,16.28
2017-08-28T00:43:07.063Z,16.31
2017-08-28T00:44:07.782Z,16.23
2017-08-28T00:45:08.525Z,16.29
2017-08-28T00:46:09.243Z,16.20
2017-08-28T00:47:09.987Z,16.12
2017-08-28T00:48:10.727Z,16.12
2017-08-28T00:49:11.442Z,16.01
2017-08-28T00:50:12.167Z,16.04
2017-08-28T00:51:12.904Z,16.04
2017-08-28T00:52:13.623Z,16.10
2017-08-28T00:53:14.364Z,16.02
2017-08-28T00:54:15.115Z,16.13
2017-08-28T00:55:15.827Z,16.10
2017-08-28T00:56:16.552Z,16.13
2017-08-28T00:57:17.272Z,16.05
2017-08-28T00:58:17.994Z,16.09
2017-08-28T00:59:18.716Z,16.17
2017-08-28T01:00:19.438Z,16.10
2017-08-28T01:01:20.183Z,16.01
2017-08-28T01:02:21.154Z,16.13
2017-08-28T01:03:21.878Z,16.01
2017-08-28T01:04:22.599Z,16.05
2017-08-28T01:05:23.320Z,16.01
2017-08-28T01:06:24.042Z,16.01
2017-08-28T01:07:24.783Z,16.02
2017-08-28T01:08:25.509Z,16.09
2017-08-28T01:09:26.229Z,16.01
2017-08-28T01:10:26.957Z,16.04
2017-08-28T01:11:27.697Z,16.00
2017-08-28T01:12:28.419Z,15.94
2017-08-28T01:13:29.138Z,16.02
2017-08-28T01:14:29.861Z,16.04
2017-08-28T01:15:30.584Z,16.08
2017-08-28T01:16:31.324Z,16.08
2017-08-28T01:17:32.067Z,16.12
2017-08-28T01:18:32.791Z,16.13
2017-08-28T01:19:33.508Z,16.13
2017-08-28T01:20:34.233Z,16.13
2017-08-28T01:21:34.975Z,16.12
2017-08-28T01:22:35.720Z,16.10
2017-08-28T01:23:36.441Z,16.10
2017-08-28T01:24:37.162Z,16.10
2017-08-28T01:25:37.885Z,16.10
2017-08-28T01:26:38.604Z,16.16
2017-08-28T01:27:39.326Z,16.08
2017-08-28T01:28:40.045Z,16.09
2017-08-28T01:29:40.768Z,16.08
2017-08-28T01:30:41.512Z,16.16
2017-08-28T01:31:42.232Z,16.16
2017-08-28T01:32:42.955Z,16.10
2017-08-28T01:33:43.676Z,16.08
2017-08-28T01:34:44.399Z,16.05
2017-08-28T01:35:45.140Z,16.08
2017-08-28T01:36:45.859Z,16.04
2017-08-28T01:37:46.601Z,16.05
2017-08-28T01:38:47.321Z,16.00
2017-08-28T01:39:48.047Z,16.05
2017-08-28T01:40:48.768Z,15.95
2017-08-28T01:41:49.490Z,15.95
2017-08-28T01:42:50.234Z,15.95
2017-08-28T01:43:50.957Z,15.92
2017-08-28T01:44:51.680Z,15.94
2017-08-28T01:45:52.425Z,15.97
2017-08-28T01:46:53.149Z,15.82
2017-08-28T01:47:53.870Z,15.88
2017-08-28T01:48:54.589Z,15.84
2017-08-28T01:49:55.313Z,15.79
2017-08-28T01:50:56.034Z,15.88
2017-08-28T01:51:56.758Z,15.84
2017-08-28T01:52:57.484Z,15.83
2017-08-28T01:53:58.200Z,15.82
2017-08-28T01:54:58.921Z,15.82
2017-08-28T01:55:59.639Z,15.76
2017-08-28T01:57:00.359Z,15.70
2017-08-28T01:58:01.107Z,15.62
2017-08-28T01:59:01.825Z,15.67
2017-08-28T02:00:02.567Z,15.70
2017-08-28T02:01:03.315Z,15.57
2017-08-28T02:02:04.057Z,15.54
2017-08-28T02:03:04.774Z,15.55
2017-08-28T02:04:05.493Z,15.52
2017-08-28T02:05:06.211Z,15.46
2017-08-28T02:06:06.934Z,15.46
2017-08-28T02:07:07.654Z,15.51
2017-08-28T02:08:08.378Z,15.49
2017-08-28T02:09:09.099Z,15.43
2017-08-28T02:10:09.845Z,15.51
2017-08-28T02:11:10.566Z,15.49
2017-08-28T02:12:11.292Z,15.43
2017-08-28T02:13:12.035Z,15.39
2017-08-28T02:14:12.780Z,15.25
2017-08-28T02:15:13.498Z,15.28
2017-08-28T02:16:14.245Z,15.35
2017-08-28T02:17:14.964Z,15.19
2017-08-28T02:18:15.688Z,15.17
2017-08-28T02:19:16.405Z,15.19
2017-08-28T02:20:17.131Z,15.14
2017-08-28T02:21:17.853Z,15.15
2017-08-28T02:22:18.578Z,15.09
2017-08-28T02:23:19.299Z,15.14
2017-08-28T02:24:20.020Z,15.14
2017-08-28T02:25:20.740Z,15.19
2017-08-28T02:26:21.461Z,15.11
2017-08-28T02:27:22.205Z,15.09
2017-08-28T02:28:22.925Z,15.03
2017-08-28T02:29:23.648Z,15.07
2017-08-28T02:30:24.371Z,15.00
2017-08-28T02:31:25.090Z,15.14
2017-08-28T02:32:25.835Z,15.10
2017-08-28T02:33:26.555Z,15.09
2017-08-28T02:34:27.299Z,15.07
2017-08-28T02:35:28.020Z,15.10
2017-08-28T02:36:28.738Z,15.07
2017-08-28T02:37:29.458Z,15.03
2017-08-28T02:38:30.181Z,14.99
2017-08-28T02:39:30.900Z,14.97
2017-08-28T02:40:31.622Z,14.97
2017-08-28T02:41:32.342Z,14.94
2017-08-28T02:42:33.061Z,14.92
2017-08-28T02:43:33.783Z,14.94
2017-08-28T02:44:34.505Z,14.91
2017-08-28T02:45:35.223Z,14.86
2017-08-28T02:46:35.964Z,14.96
2017-08-28T02:47:36.686Z,15.00
2017-08-28T02:48:37.422Z,14.96
2017-08-28T02:49:38.147Z,14.97
2017-08-28T02:50:38.893Z,14.99
2017-08-28T02:51:39.612Z,14.94
2017-08-28T02:52:40.358Z,14.91
2017-08-28T02:53:41.080Z,14.97
2017-08-28T02:54:41.824Z,14.96
2017-08-28T02:55:42.544Z,14.99
2017-08-28T02:56:43.274Z,14.89
2017-08-28T02:57:44.015Z,14.97
2017-08-28T02:58:44.737Z,14.86
2017-08-28T02:59:45.456Z,14.89
2017-08-28T03:00:46.178Z,14.89
2017-08-28T03:01:46.901Z,14.89
2017-08-28T03:02:47.619Z,14.86
2017-08-28T03:03:48.339Z,14.79
2017-08-28T03:04:49.063Z,14.82
2017-08-28T03:05:49.785Z,14.82
2017-08-28T03:06:50.532Z,14.86
2017-08-28T03:07:51.251Z,14.81
2017-08-28T03:08:51.994Z,14.78
2017-08-28T03:09:52.715Z,14.78
2017-08-28T03:10:53.437Z,14.78
2017-08-28T03:11:54.194Z,14.72
2017-08-28T03:12:54.930Z,14.77
2017-08-28T03:13:55.649Z,14.70
2017-08-28T03:14:56.373Z,14.63
2017-08-28T03:15:57.086Z,14.78
2017-08-28T03:16:57.810Z,14.62
2017-08-28T03:17:58.529Z,14.65
2017-08-28T03:18:59.247Z,14.62
2017-08-28T03:19:59.971Z,14.60
2017-08-28T03:21:00.695Z,14.63
2017-08-28T03:22:01.418Z,14.63
2017-08-28T03:23:02.140Z,14.68
2017-08-28T03:24:02.859Z,14.69
2017-08-28T03:25:03.576Z,14.63
2017-08-28T03:26:04.296Z,14.68
2017-08-28T03:27:05.027Z,14.62
2017-08-28T03:28:05.768Z,14.58
2017-08-28T03:29:06.506Z,14.59
2017-08-28T03:30:07.226Z,14.59
2017-08-28T03:31:07.952Z,14.51
2017-08-28T03:32:08.673Z,14.63
2017-08-28T03:33:09.396Z,14.51
2017-08-28T03:34:10.116Z,14.50
2017-08-28T03:35:10.862Z,14.55
2017-08-28T03:36:11.579Z,14.47
2017-08-28T03:37:12.327Z,14.53
2017-08-28T03:38:13.046Z,14.53
2017-08-28T03:39:13.766Z,14.53
2017-08-28T03:40:14.489Z,14.48
2017-08-28T03:41:15.209Z,14.41
2017-08-28T03:42:15.933Z,14.51
2017-08-28T03:43:16.678Z,14.43
2017-08-28T03:44:17.400Z,14.44
2017-08-28T03:45:18.118Z,14.45
2017-08-28T03:46:18.862Z,14.43
2017-08-28T03:47:19.578Z,14.54
2017-08-28T03:48:20.303Z,14.59
2017-08-28T03:49:21.028Z,14.53
2017-08-28T03:50:21.748Z,14.44
2017-08-28T03:51:22.469Z,14.58
2017-08-28T03:52:23.213Z,14.51
2017-08-28T03:53:23.956Z,14.50
2017-08-28T03:54:24.698Z,14.47
2017-08-28T03:55:25.421Z,14.54
2017-08-28T03:56:26.142Z,14.47
2017-08-28T03:57:26.889Z,14.51
2017-08-28T03:58:27.611Z,14.50
2017-08-28T03:59:28.356Z,14.43
2017-08-28T04:00:29.074Z,14.41
2017-08-28T04:01:29.796Z,14.41
2017-08-28T04:02:30.515Z,14.40
2017-08-28T04:03:31.239Z,14.37
2017-08-28T04:04:31.960Z,14.37
2017-08-28T04:05:32.679Z,14.35
2017-08-28T04:06:33.421Z,14.37
2017-08-28T04:07:34.143Z,14.35
2017-08-28T04:08:34.863Z,14.30
2017-08-28T04:09:35.581Z,14.43
2017-08-28T04:10:36.300Z,14.30
2017-08-28T04:11:37.021Z,14.36
2017-08-28T04:12:37.748Z,14.41
2017-08-28T04:13:38.464Z,14.29
2017-08-28T04:14:39.186Z,14.35
2017-08-28T04:15:39.909Z,14.35
2017-08-28T04:16:40.633Z,14.37
2017-08-28T04:17:41.377Z,14.37
2017-08-28T04:18:42.099Z,14.28
2017-08-28T04:19:42.823Z,14.35
2017-08-28T04:20:43.566Z,14.40
2017-08-28T04:21:44.311Z,14.32
2017-08-28T04:22:45.034Z,14.41
2017-08-28T04:23:45.754Z,14.41
2017-08-28T04:24:46.497Z,14.47
2017-08-28T04:25:47.218Z,14.41
2017-08-28T04:26:47.965Z,14.44
2017-08-28T04:27:48.686Z,14.43
2017-08-28T04:28:49.432Z,14.44
2017-08-28T04:29:50.157Z,14.40
2017-08-28T04:30:50.875Z,14.41
2017-08-28T04:31:51.596Z,14.37
2017-08-28T04:32:52.319Z,14.41
2017-08-28T04:33:53.039Z,14.43
2017-08-28T04:34:53.784Z,14.35
2017-08-28T04:35:54.509Z,14.28
2017-08-28T04:36:55.235Z,14.32
2017-08-28T04:37:55.959Z,14.37
2017-08-28T04:38:56.683Z,14.40
2017-08-28T04:39:57.408Z,14.36
2017-08-28T04:40:58.156Z,14.30
2017-08-28T04:41:58.878Z,14.30
2017-08-28T04:42:59.602Z,14.30
2017-08-28T04:44:00.329Z,14.40
2017-08-28T04:45:01.057Z,14.41
2017-08-28T04:46:01.779Z,14.29
2017-08-28T04:47:02.505Z,14.36
2017-08-28T04:48:03.254Z,14.30
2017-08-28T04:49:03.977Z,14.37
2017-08-28T04:50:04.728Z,14.41
2017-08-28T04:51:05.454Z,14.37
2017-08-28T04:52:06.195Z,14.44
2017-08-28T04:53:06.939Z,14.43
2017-08-28T04:54:07.663Z,14.41
2017-08-28T04:55:08.394Z,14.40
2017-08-28T04:56:09.141Z,14.50
2017-08-28T04:57:09.888Z,14.50
2017-08-28T04:58:10.633Z,14.48
2017-08-28T04:59:11.360Z,14.55
2017-08-28T05:00:12.084Z,14.55
2017-08-28T05:01:12.811Z,14.59
2017-08-28T05:02:13.555Z,14.55
2017-08-28T05:03:14.283Z,14.63
2017-08-28T05:04:15.009Z,14.65
2017-08-28T05:05:15.760Z,14.65
2017-08-28T05:06:16.487Z,14.69
2017-08-28T05:07:17.215Z,14.73
2017-08-28T05:08:17.946Z,14.73
2017-08-28T05:09:18.693Z,14.79
2017-08-28T05:10:19.421Z,14.81
2017-08-28T05:11:20.169Z,14.82
2017-08-28T05:12:20.896Z,14.84
2017-08-28T05:13:21.649Z,14.84
2017-08-28T05:14:22.377Z,14.73
2017-08-28T05:15:23.100Z,14.94
2017-08-28T05:16:23.829Z,14.94
2017-08-28T05:17:24.581Z,14.96
2017-08-28T05:18:25.306Z,14.96
2017-08-28T05:19:26.033Z,15.02
2017-08-28T05:20:26.763Z,14.94
2017-08-28T05:21:27.490Z,15.04
2017-08-28T05:22:28.238Z,15.07
2017-08-28T05:23:28.962Z,15.14
2017-08-28T05:24:29.717Z,15.15
2017-08-28T05:25:30.442Z,15.15
2017-08-28T05:26:31.191Z,15.18
2017-08-28T05:27:31.921Z,15.09
2017-08-28T05:28:32.654Z,15.10
2017-08-28T05:29:33.400Z,15.14
2017-08-28T05:30:34.154Z,15.10
2017-08-28T05:31:34.880Z,15.24
2017-08-28T05:32:35.606Z,15.21
2017-08-28T05:33:36.356Z,15.29
2017-08-28T05:34:37.084Z,15.28
2017-08-28T05:35:37.812Z,15.28
2017-08-28T05:36:38.544Z,15.31
2017-08-28T05:37:39.269Z,15.28
2017-08-28T05:38:39.997Z,15.37
2017-08-28T05:39:40.726Z,15.42
2017-08-28T05:40:41.458Z,15.42
2017-08-28T05:41:42.182Z,15.43
2017-08-28T05:42:42.933Z,15.37
2017-08-28T05:43:43.663Z,15.44
2017-08-28T05:44:44.389Z,15.49
2017-08-28T05:45:45.115Z,15.44
2017-08-28T05:46:45.865Z,15.51
2017-08-28T05:47:46.594Z,15.52
2017-08-28T05:48:47.324Z,15.54
2017-08-28T05:49:48.049Z,15.57
2017-08-28T05:50:48.778Z,15.54
2017-08-28T05:51:49.506Z,15.64
2017-08-28T05:52:50.235Z,15.64
2017-08-28T05:53:50.987Z,15.80
2017-08-28T05:54:51.716Z,15.75
2017-08-28T05:55:52.442Z,15.83
2017-08-28T05:56:53.175Z,15.90
2017-08-28T05:57:53.905Z,15.83
2017-08-28T05:58:54.634Z,15.88
2017-08-28T05:59:55.363Z,15.98
2017-08-28T06:00:56.110Z,15.97
2017-08-28T06:01:56.823Z,15.98
2017-08-28T06:02:57.547Z,16.01
2017-08-28T06:03:58.278Z,16.08
2017-08-28T06:04:59.003Z,16.12
2017-08-28T06:05:59.733Z,16.20
2017-08-28T06:07:00.486Z,16.23
2017-08-28T06:08:01.217Z,16.29
2017-08-28T06:09:01.946Z,16.32
2017-08-28T06:10:02.690Z,16.36
2017-08-28T06:11:03.428Z,16.43
2017-08-28T06:12:04.159Z,16.47
2017-08-28T06:13:04.889Z,16.51
2017-08-28T06:14:05.637Z,16.53
2017-08-28T06:15:06.365Z,16.51
2017-08-28T06:16:07.117Z,16.57
2017-08-28T06:17:07.848Z,16.56
2017-08-28T06:18:08.575Z,16.61
2017-08-28T06:19:09.306Z,16.74
2017-08-28T06:20:10.035Z,16.75
2017-08-28T06:21:10.762Z,16.89
2017-08-28T06:22:11.494Z,16.90
2017-08-28T06:23:12.227Z,16.87
2017-08-28T06:24:12.959Z,16.94
2017-08-28T06:25:13.691Z,17.04
2017-08-28T06:26:14.435Z,17.04
2017-08-28T06:27:15.166Z,17.05
2017-08-28T06:28:15.894Z,17.22
2017-08-28T06:29:16.626Z,17.31
2017-08-28T06:30:17.357Z,17.39
2017-08-28T06:31:18.109Z,17.48
2017-08-28T06:32:18.843Z,17.48
2017-08-28T06:33:19.575Z,17.54
2017-08-28T06:34:20.304Z,17.63
2017-08-28T06:35:21.053Z,17.64
2017-08-28T06:36:21.786Z,17.64
2017-08-28T06:37:22.518Z,17.67
2017-08-28T06:38:23.244Z,17.67
2017-08-28T06:39:23.979Z,17.79
2017-08-28T06:40:24.708Z,17.65
2017-08-28T06:41:25.444Z,17.76
2017-08-28T06:42:26.198Z,17.76
2017-08-28T06:43:26.933Z,17.71
2017-08-28T06:44:27.661Z,17.83
2017-08-28T06:45:28.398Z,18.05
2017-08-28T06:46:29.133Z,18.23
2017-08-28T06:47:29.883Z,18.26
2017-08-28T06:48:30.611Z,18.35
2017-08-28T06:49:31.349Z,18.40
2017-08-28T06:50:32.078Z,18.35
2017-08-28T06:51:32.835Z,18.31
2017-08-28T06:52:33.586Z,18.31
2017-08-28T06:53:34.318Z,18.35
2017-08-28T06:54:35.060Z,18.56
2017-08-28T06:55:35.782Z,18.41
2017-08-28T06:56:36.517Z,18.63
2017-08-28T06:57:37.256Z,18.65
2017-08-28T06:58:37.987Z,18.66
2017-08-28T06:59:38.721Z,18.65
2017-08-28T07:00:39.454Z,18.60
2017-08-28T07:01:40.188Z,18.81
2017-08-28T07:02:40.922Z,18.90
2017-08-28T07:03:41.652Z,18.88
2017-08-28T07:04:42.383Z,18.99
2017-08-28T07:05:43.116Z,19.29
2017-08-28T07:06:43.846Z,19.40
2017-08-28T07:07:44.578Z,19.55
2017-08-28T07:08:45.330Z,19.67
2017-08-28T07:09:46.071Z,19.86
2017-08-28T07:10:46.796Z,19.77
2017-08-28T07:11:47.530Z,19.96
2017-08-28T07:12:48.264Z,20.07
2017-08-28T07:13:49.020Z,20.39
2017-08-28T07:14:49.771Z,20.62
2017-08-28T07:15:50.513Z,20.80
2017-08-28T07:16:51.291Z,20.95
2017-08-28T07:17:52.025Z,21.05
2017-08-28T07:18:52.761Z,21.21
2017-08-28T07:19:53.497Z,20.84
2017-08-28T07:20:54.233Z,20.69
2017-08-28T07:21:54.969Z,20.88
2017-08-28T07:22:55.704Z,20.85
2017-08-28T07:23:56.446Z,21.12
2017-08-28T07:24:57.185Z,20.85
2017-08-28T07:25:57.925Z,21.14
2017-08-28T07:26:58.668Z,20.81
2017-08-28T07:27:59.408Z,21.11
2017-08-28T07:29:00.152Z,21.30
2017-08-28T07:30:00.891Z,21.27
2017-08-28T07:31:01.634Z,21.40
2017-08-28T07:32:02.376Z,21.58
2017-08-28T07:33:03.114Z,21.77
2017-08-28T07:34:03.881Z,21.85
2017-08-28T07:35:04.624Z,21.72
2017-08-28T07:36:05.359Z,21.76
2017-08-28T07:37:06.124Z,21.77
2017-08-28T07:38:06.865Z,21.73
2017-08-28T07:39:07.603Z,21.87
2017-08-28T07:40:08.345Z,22.10
2017-08-28T07:41:09.084Z,22.04
2017-08-28T07:42:09.847Z,21.96
2017-08-28T07:43:10.590Z,21.82
2017-08-28T07:44:11.335Z,21.93
2017-08-28T07:45:12.096Z,22.06
2017-08-28T07:46:12.840Z,22.13
2017-08-28T07:47:13.583Z,22.17
2017-08-28T07:48:14.319Z,22.29
2017-08-28T07:49:15.058Z,22.44
2017-08-28T07:50:15.796Z,22.60
2017-08-28T07:51:16.564Z,23.06
2017-08-28T07:52:17.300Z,23.02
2017-08-28T07:53:18.041Z,22.73
2017-08-28T07:54:18.775Z,22.88
2017-08-28T07:55:19.516Z,23.37
2017-08-28T07:56:20.256Z,23.54
2017-08-28T07:57:20.996Z,23.78
2017-08-28T07:58:21.733Z,23.95
2017-08-28T07:59:22.494Z,24.36
2017-08-28T08:00:23.235Z,24.23
2017-08-28T08:01:23.992Z,23.61
2017-08-28T08:02:24.734Z,23.68
2017-08-28T08:03:25.470Z,23.76
2017-08-28T08:04:26.213Z,23.78
2017-08-28T08:05:26.949Z,23.95
2017-08-28T08:06:27.690Z,23.71
2017-08-28T08:07:28.432Z,24.02
2017-08-28T08:08:29.173Z,23.95
2017-08-28T08:09:29.911Z,24.02
2017-08-28T08:10:30.656Z,24.39
2017-08-28T08:11:31.401Z,24.33
2017-08-28T08:12:32.136Z,24.53
2017-08-28T08:13:32.881Z,25.03
2017-08-28T08:14:33.617Z,25.31
2017-08-28T08:15:34.361Z,25.43
2017-08-28T08:16:35.102Z,25.60
2017-08-28T08:17:35.843Z,25.81
2017-08-28T08:18:36.603Z,26.10
2017-08-28T08:19:37.346Z,26.43
2017-08-28T08:20:38.089Z,26.59
2017-08-28T08:21:38.831Z,26.41
2017-08-28T08:22:39.574Z,26.33
2017-08-28T08:23:40.337Z,26.53
2017-08-28T08:24:41.079Z,26.90
2017-08-28T08:25:41.825Z,27.18
2017-08-28T08:26:42.565Z,27.36
2017-08-28T08:27:43.308Z,26.81
2017-08-28T08:28:44.072Z,26.95
2017-08-28T08:29:44.814Z,26.71
2017-08-28T08:30:45.558Z,26.62
2017-08-28T08:31:46.327Z,26.73
2017-08-28T08:32:47.065Z,27.03
2017-08-28T08:33:47.808Z,27.27
2017-08-28T08:34:48.550Z,27.49
2017-08-28T08:35:49.295Z,27.11
2017-08-28T08:36:50.040Z,26.68
2017-08-28T08:37:50.806Z,26.78
2017-08-28T08:38:51.545Z,26.40
2017-08-28T08:39:52.293Z,26.66
2017-08-28T08:40:53.055Z,26.78
2017-08-28T08:41:53.801Z,26.56
2017-08-28T08:42:54.542Z,26.77
2017-08-28T08:43:55.284Z,27.00
2017-08-28T08:44:56.028Z,27.32
2017-08-28T08:45:56.770Z,27.36
2017-08-28T08:46:57.516Z,27.05
2017-08-28T08:47:58.279Z,27.05
2017-08-28T08:48:59.025Z,26.71
2017-08-28T08:49:59.772Z,27.05
2017-08-28T08:51:00.542Z,27.18
2017-08-28T08:52:01.281Z,26.80
2017-08-28T08:53:02.022Z,26.55
2017-08-28T08:54:02.766Z,26.23
2017-08-28T08:55:03.514Z,26.78
2017-08-28T08:56:04.259Z,27.05
2017-08-28T08:57:05.025Z,27.07
2017-08-28T08:58:05.768Z,27.05
2017-08-28T08:59:06.512Z,26.59
2017-08-28T09:00:07.259Z,26.51
2017-08-28T09:01:08.005Z,27.05
2017-08-28T09:02:08.772Z,27.32
2017-08-28T09:03:09.514Z,27.32
2017-08-28T09:04:10.261Z,27.77
2017-08-28T09:05:11.003Z,27.63
2017-08-28T09:06:11.774Z,27.17
2017-08-28T09:07:12.516Z,26.99
2017-08-28T09:08:13.261Z,26.37
2017-08-28T09:09:14.003Z,26.33
2017-08-28T09:10:14.768Z,26.41
2017-08-28T09:11:15.539Z,26.92
2017-08-28T09:12:16.282Z,27.33
2017-08-28T09:13:17.027Z,27.18
2017-08-28T09:14:17.770Z,26.99
2017-08-28T09:15:18.515Z,27.18
2017-08-28T09:16:19.277Z,27.05
2017-08-28T09:17:20.019Z,26.71
2017-08-28T09:18:20.795Z,26.47
2017-08-28T09:19:21.511Z,25.84
2017-08-28T09:20:22.262Z,26.25
2017-08-28T09:21:23.009Z,26.44
2017-08-28T09:22:23.755Z,26.52
2017-08-28T09:23:24.499Z,26.44
2017-08-28T09:24:25.242Z,26.80
2017-08-28T09:25:25.987Z,27.02
2017-08-28T09:26:26.735Z,27.11
2017-08-28T09:27:27.484Z,27.29
2017-08-28T09:28:28.234Z,27.35
2017-08-28T09:29:28.988Z,26.83
2017-08-28T09:30:29.735Z,26.44
2017-08-28T09:31:30.501Z,26.07
2017-08-28T09:32:31.273Z,26.38
2017-08-28T09:33:32.048Z,26.10
2017-08-28T09:34:32.799Z,26.33
2017-08-28T09:35:33.541Z,26.31
2017-08-28T09:36:34.292Z,26.03
2017-08-28T09:37:35.040Z,26.09
2017-08-28T09:38:35.793Z,25.95
2017-08-28T09:39:36.541Z,26.02
2017-08-28T09:40:37.289Z,25.59
2017-08-28T09:41:38.040Z,25.99
2017-08-28T09:42:38.813Z,26.00
2017-08-28T09:43:39.565Z,26.33
2017-08-28T09:44:40.312Z,26.43
2017-08-28T09:45:41.062Z,27.18
2017-08-28T09:46:41.832Z,27.85
2017-08-28T09:47:42.585Z,28.02
2017-08-28T09:48:43.334Z,28.25
2017-08-28T09:49:44.086Z,28.37
2017-08-28T09:50:44.841Z,28.62
2017-08-28T09:51:45.592Z,28.19
2017-08-28T09:52:46.343Z,28.22
2017-08-28T09:53:47.116Z,27.86
2017-08-28T09:54:47.863Z,27.59
2017-08-28T09:55:48.615Z,27.60
2017-08-28T09:56:49.371Z,27.52
2017-08-28T09:57:50.126Z,27.44
2017-08-28T09:58:50.873Z,27.55
2017-08-28T09:59:51.628Z,27.80
2017-08-28T10:00:52.377Z,28.37
2017-08-28T10:01:53.152Z,28.47
2017-08-28T10:02:53.903Z,28.10
2017-08-28T10:03:54.653Z,28.22
2017-08-28T10:04:55.423Z,27.40
2017-08-28T10:05:56.177Z,27.20
2017-08-28T10:06:56.929Z,26.81
2017-08-28T10:07:57.679Z,26.68
2017-08-28T10:08:58.427Z,26.59
2017-08-28T10:09:59.200Z,26.59
2017-08-28T10:10:59.951Z,26.70
2017-08-28T10:12:00.721Z,27.47
2017-08-28T10:13:01.473Z,27.92
2017-08-28T10:14:02.222Z,28.02
2017-08-28T10:15:02.972Z,28.00
2017-08-28T10:16:03.728Z,28.04
2017-08-28T10:17:04.480Z,28.29
2017-08-28T10:18:05.231Z,28.14
2017-08-28T10:19:05.982Z,28.08
2017-08-28T10:20:06.730Z,28.05
2017-08-28T10:21:07.483Z,28.37
2017-08-28T10:22:08.230Z,27.83
2017-08-28T10:23:09.006Z,28.04
2017-08-28T10:24:09.755Z,28.42
2017-08-28T10:25:10.530Z,27.78
2017-08-28T10:26:11.303Z,27.89
2017-08-28T10:27:12.053Z,27.65
2017-08-28T10:28:12.805Z,27.90
2017-08-28T10:29:13.558Z,27.82
2017-08-28T10:30:14.309Z,28.57
2017-08-28T10:31:15.058Z,29.27
2017-08-28T10:32:15.809Z,29.65
2017-08-28T10:33:16.582Z,29.42
2017-08-28T10:34:17.337Z,29.17
2017-08-28T10:35:18.090Z,29.82
2017-08-28T10:36:18.842Z,30.51
2017-08-28T10:37:19.593Z,30.30
2017-08-28T10:38:20.347Z,30.13
2017-08-28T10:39:21.099Z,30.43
2017-08-28T10:40:21.874Z,30.80
2017-08-28T10:41:22.622Z,30.88
2017-08-28T10:42:23.397Z,30.59
2017-08-28T10:43:24.151Z,30.19
2017-08-28T10:44:24.903Z,30.24
2017-08-28T10:45:25.654Z,30.46
2017-08-28T10:46:26.400Z,30.40
2017-08-28T10:47:27.149Z,30.84
2017-08-28T10:48:27.896Z,31.20
2017-08-28T10:49:28.642Z,31.02
2017-08-28T10:50:29.411Z,30.50
2017-08-28T10:51:30.162Z,30.65
2017-08-28T10:52:30.928Z,31.02
2017-08-28T10:53:31.683Z,31.40
2017-08-28T10:54:32.433Z,31.90
2017-08-28T10:55:33.183Z,31.55
2017-08-28T10:56:33.931Z,31.21
2017-08-28T10:57:34.683Z,31.15
2017-08-28T10:58:35.428Z,31.27
2017-08-28T10:59:36.201Z,31.18
2017-08-28T11:00:36.950Z,30.83
2017-08-28T11:01:37.699Z,30.97
2017-08-28T11:02:38.450Z,31.22
2017-08-28T11:03:39.219Z,31.14
2017-08-28T11:04:39.968Z,31.77
2017-08-28T11:05:40.717Z,31.36
2017-08-28T11:06:41.471Z,31.21
2017-08-28T11:07:42.242Z,30.75
2017-08-28T11:08:42.993Z,31.55
2017-08-28T11:09:43.752Z,32.31
2017-08-28T11:10:44.493Z,32.97
2017-08-28T11:11:45.265Z,32.78
2017-08-28T11:12:46.019Z,32.64
2017-08-28T11:13:46.769Z,33.02
2017-08-28T11:14:47.548Z,31.92
2017-08-28T11:15:48.289Z,31.90
2017-08-28T11:16:49.034Z,32.55
2017-08-28T11:17:49.789Z,32.97
2017-08-28T11:18:50.537Z,33.52
2017-08-28T11:19:51.283Z,33.80
2017-08-28T11:20:52.033Z,33.67
2017-08-28T11:21:52.779Z,32.65
2017-08-28T11:22:53.527Z,32.12
2017-08-28T11:23:54.277Z,31.97
2017-08-28T11:24:55.024Z,31.92
2017-08-28T11:25:55.769Z,32.23
2017-08-28T11:26:56.520Z,31.93
2017-08-28T11:27:57.268Z,32.01
2017-08-28T11:28:58.017Z,32.31
2017-08-28T11:29:58.761Z,31.39
2017-08-28T11:30:59.510Z,30.97
2017-08-28T11:32:00.261Z,31.61
2017-08-28T11:33:01.006Z,31.33
2017-08-28T11:34:01.754Z,31.07
2017-08-28T11:35:02.510Z,30.68
2017-08-28T11:36:03.273Z,30.77
2017-08-28T11:37:04.022Z,30.66
2017-08-28T11:38:04.788Z,31.58
2017-08-28T11:39:05.559Z,32.14
2017-08-28T11:40:06.327Z,32.52
2017-08-28T11:41:07.073Z,33.22
2017-08-28T11:42:07.818Z,33.81
2017-08-28T11:43:08.568Z,33.99
2017-08-28T11:44:09.316Z,33.24
2017-08-28T11:45:10.062Z,32.55
2017-08-28T11:46:10.813Z,32.90
2017-08-28T11:47:11.560Z,33.09
2017-08-28T11:48:12.326Z,33.52
2017-08-28T11:49:13.078Z,33.53
2017-08-28T11:50:13.828Z,32.07
2017-08-28T11:51:14.596Z,32.49
2017-08-28T11:52:15.365Z,31.90
2017-08-28T11:53:16.112Z,32.15
2017-08-28T11:54:16.881Z,32.52
2017-08-28T11:55:17.626Z,33.11
2017-08-28T11:56:18.375Z,33.79
2017-08-28T11:57:19.123Z,34.11
2017-08-28T11:58:19.871Z,34.20
2017-08-28T11:59:20.616Z,34.51
2017-08-28T12:00:21.366Z,34.96
2017-08-28T12:01:22.117Z,35.45
2017-08-28T12:02:22.864Z,35.48
2017-08-28T12:03:23.621Z,35.76
2017-08-28T12:04:24.364Z,35.14
2017-08-28T12:05:25.138Z,34.86
2017-08-28T12:06:25.891Z,34.93
2017-08-28T12:07:26.648Z,35.14
2017-08-28T12:08:27.403Z,34.90
2017-08-28T12:09:28.146Z,34.81
2017-08-28T12:10:28.916Z,34.73
2017-08-28T12:11:29.688Z,34.70
2017-08-28T12:12:30.440Z,32.75
2017-08-28T12:13:31.189Z,32.67
2017-08-28T12:14:31.935Z,32.86
2017-08-28T12:15:32.686Z,32.78
2017-08-28T12:16:33.432Z,32.18
2017-08-28T12:17:34.179Z,30.94
2017-08-28T12:18:34.929Z,30.99
2017-08-28T12:19:35.678Z,30.68
2017-08-28T12:20:36.426Z,31.03
2017-08-28T12:21:37.178Z,31.00
2017-08-28T12:22:37.951Z,30.63
2017-08-28T12:23:38.703Z,31.44
2017-08-28T12:24:39.450Z,31.96
2017-08-28T12:25:40.194Z,31.96
2017-08-28T12:26:40.944Z,32.58
2017-08-28T12:27:41.690Z,33.08
2017-08-28T12:28:42.440Z,33.31
2017-08-28T12:29:43.183Z,33.96
2017-08-28T12:30:43.936Z,34.14
2017-08-28T12:31:44.707Z,34.08
2017-08-28T12:32:45.453Z,34.30
2017-08-28T12:33:46.196Z,35.04
2017-08-28T12:34:46.970Z,34.57
2017-08-28T12:35:47.742Z,33.98
2017-08-28T12:36:48.492Z,33.20
2017-08-28T12:37:49.238Z,32.38
2017-08-28T12:38:49.987Z,32.49
2017-08-28T12:39:50.732Z,31.81
2017-08-28T12:40:51.486Z,31.78
2017-08-28T12:41:52.248Z,32.27
2017-08-28T12:42:52.997Z,32.01
2017-08-28T12:43:53.747Z,32.08
2017-08-28T12:44:54.496Z,32.49
2017-08-28T12:45:55.248Z,32.97
2017-08-28T12:46:55.993Z,32.93
2017-08-28T12:47:56.743Z,33.32
2017-08-28T12:48:57.494Z,33.39
2017-08-28T12:49:58.244Z,33.37
2017-08-28T12:50:58.992Z,33.62
2017-08-28T12:51:59.745Z,32.36
2017-08-28T12:53:00.495Z,32.85
2017-08-28T12:54:01.241Z,32.63
2017-08-28T12:55:01.991Z,33.36
2017-08-28T12:56:02.739Z,33.90
2017-08-28T12:57:03.486Z,34.06
2017-08-28T12:58:04.232Z,34.36
2017-08-28T12:59:04.995Z,34.27
2017-08-28T13:00:05.761Z,33.94
2017-08-28T13:01:06.509Z,33.45
2017-08-28T13:02:07.254Z,33.73